createdAt,value
2022-08-05T00:01:27.849Z,63.07
2022-08-05T00:03:57.078Z,63.33
2022-08-05T00:06:32.170Z,63.25
2022-08-05T00:09:01.107Z,63.50
2022-08-05T00:11:34.835Z,63.80
2022-08-05T00:14:16.940Z,63.94
2022-08-05T00:16:52.421Z,64.07
2022-08-05T00:19:24.762Z,64.09
2022-08-05T00:22:00.227Z,64.24
2022-08-05T00:24:31.130Z,64.58
2022-08-05T00:26:59.221Z,64.63
2022-08-05T00:29:27.519Z,64.85
2022-08-05T00:32:10.986Z,65.05
2022-08-05T00:35:04.095Z,65.14
2022-08-05T00:37:29.593Z,65.31
2022-08-05T00:40:17.869Z,65.51
2022-08-05T00:43:01.366Z,65.48
2022-08-05T00:45:42.865Z,65.51
2022-08-05T00:48:13.777Z,65.45
2022-08-05T00:50:44.372Z,65.56
2022-08-05T00:53:45.421Z,65.47
2022-08-05T00:56:07.933Z,65.31
2022-08-05T00:58:35.689Z,65.43
2022-08-05T01:01:08.534Z,65.47
2022-08-05T01:03:37.867Z,65.39
2022-08-05T01:06:05.613Z,65.45
2022-08-05T01:08:43.245Z,65.83
2022-08-05T01:11:21.713Z,65.96
2022-08-05T01:14:00.060Z,65.94
2022-08-05T01:16:34.542Z,66.21
2022-08-05T01:20:02.306Z,66.29
2022-08-05T01:23:14.936Z,66.44
2022-08-05T01:26:07.295Z,66.40
2022-08-05T01:28:48.970Z,66.36
2022-08-05T01:31:44.826Z,66.86
2022-08-05T01:34:17.756Z,67.01
2022-08-05T01:36:53.750Z,66.82
2022-08-05T01:39:36.839Z,67.05
2022-08-05T01:42:13.784Z,67.13
2022-08-05T01:44:45.663Z,67.31
2022-08-05T01:47:22.271Z,67.50
2022-08-05T01:50:01.552Z,67.33
2022-08-05T01:52:31.635Z,67.52
2022-08-05T01:55:04.462Z,67.81
2022-08-05T01:58:10.296Z,67.97
2022-08-05T02:00:30.617Z,68.26
2022-08-05T02:03:03.493Z,68.48
2022-08-05T02:05:35.823Z,68.76
2022-08-05T02:08:05.119Z,68.67
2022-08-05T02:10:41.811Z,69.00
2022-08-05T02:13:18.941Z,69.17
2022-08-05T02:15:58.342Z,69.12
2022-08-05T02:18:34.783Z,69.43
2022-08-05T02:21:28.595Z,69.47
2022-08-05T02:24:06.357Z,69.68
2022-08-05T02:26:54.018Z,69.95
2022-08-05T02:29:59.199Z,70.02
2022-08-05T02:32:23.775Z,70.36
2022-08-05T02:35:01.981Z,70.67
2022-08-05T02:37:38.762Z,71.06
2022-08-05T02:40:09.606Z,71.29
2022-08-05T02:42:37.784Z,71.64
2022-08-05T02:45:07.096Z,71.82
2022-08-05T02:48:07.389Z,72.27
2022-08-05T02:50:24.462Z,72.55
2022-08-05T02:52:52.654Z,72.51
2022-08-05T02:55:48.336Z,72.75
2022-08-05T02:58:10.282Z,73.16
2022-08-05T03:00:41.750Z,73.15
2022-08-05T03:03:17.207Z,73.33
2022-08-05T03:06:55.959Z,73.41
2022-08-05T03:08:36.515Z,73.50
2022-08-05T03:11:56.441Z,73.50
2022-08-05T03:14:03.322Z,73.61
2022-08-05T03:16:31.632Z,73.73
2022-08-05T03:19:00.512Z,73.86
2022-08-05T03:21:28.681Z,74.04
2022-08-05T03:23:56.951Z,74.32
2022-08-05T03:26:31.659Z,74.24
2022-08-05T03:28:59.978Z,74.12
2022-08-05T03:31:56.257Z,74.19
2022-08-05T03:34:15.789Z,73.95
2022-08-05T03:36:43.811Z,74.22
2022-08-05T03:39:19.880Z,74.08
2022-08-05T03:41:53.725Z,74.40
2022-08-05T03:44:24.194Z,74.21
2022-08-05T03:46:51.731Z,74.14
2022-08-05T03:49:19.153Z,74.28
2022-08-05T03:52:39.253Z,74.16
2022-08-05T03:55:53.093Z,74.42
2022-08-05T03:57:41.801Z,74.26
2022-08-05T04:00:15.487Z,74.30
2022-08-05T04:02:58.649Z,74.42
2022-08-05T04:05:33.711Z,73.98
2022-08-05T04:08:14.733Z,74.11
2022-08-05T04:10:58.549Z,73.82
2022-08-05T04:13:50.610Z,73.74
2022-08-05T04:16:14.501Z,73.68
2022-08-05T04:18:41.585Z,73.63
2022-08-05T04:21:11.144Z,73.69
2022-08-05T04:23:58.426Z,73.36
2022-08-05T04:26:26.459Z,72.86
2022-08-05T04:29:00.262Z,72.71
2022-08-05T04:31:38.782Z,71.97
2022-08-05T04:34:31.897Z,72.19
2022-08-05T04:36:53.948Z,71.05
2022-08-05T04:39:21.688Z,70.90
2022-08-05T04:41:51.119Z,70.17
2022-08-05T04:44:21.518Z,69.96
2022-08-05T04:46:56.395Z,69.84
2022-08-05T04:49:24.914Z,69.33
2022-08-05T04:52:07.680Z,69.50
2022-08-05T04:54:35.102Z,69.26
2022-08-05T04:57:01.908Z,69.34
2022-08-05T04:59:38.607Z,69.10
2022-08-05T05:02:41.285Z,68.93
2022-08-05T05:05:02.237Z,68.67
2022-08-05T05:07:32.148Z,67.87
2022-08-05T05:10:04.567Z,68.07
2022-08-05T05:12:32.175Z,68.01
2022-08-05T05:14:58.983Z,67.43
2022-08-05T05:17:56.279Z,67.27
2022-08-05T05:20:28.259Z,67.19
2022-08-05T05:22:57.716Z,66.96
2022-08-05T05:25:32.590Z,66.88
2022-08-05T05:28:00.069Z,66.73
2022-08-05T05:30:29.316Z,66.67
2022-08-05T05:33:00.723Z,65.99
2022-08-05T05:35:38.014Z,65.94
2022-08-05T05:38:09.193Z,65.76
2022-08-05T05:40:48.352Z,65.42
2022-08-05T05:43:22.315Z,64.92
2022-08-05T05:46:08.498Z,64.83
2022-08-05T05:48:41.882Z,64.96
2022-08-05T05:51:14.911Z,65.24
2022-08-05T05:53:54.334Z,65.42
2022-08-05T05:56:34.147Z,65.51
2022-08-05T05:59:05.272Z,65.53
2022-08-05T06:01:39.819Z,65.22
2022-08-05T06:04:12.642Z,65.03
2022-08-05T06:06:42.981Z,64.73
2022-08-05T06:09:16.627Z,64.74
2022-08-05T06:11:59.350Z,64.59
2022-08-05T06:14:28.858Z,64.21
2022-08-05T06:16:57.028Z,64.31
2022-08-05T06:19:26.134Z,64.22
2022-08-05T06:22:01.414Z,63.98
2022-08-05T06:24:28.418Z,63.66
2022-08-05T06:26:56.072Z,62.71
2022-08-05T06:29:25.503Z,63.06
2022-08-05T06:32:26.301Z,63.00
2022-08-05T06:34:58.693Z,62.84
2022-08-05T06:37:39.412Z,62.03
2022-08-05T06:40:18.581Z,61.88
2022-08-05T06:42:52.059Z,61.87
2022-08-05T06:45:45.135Z,61.66
2022-08-05T06:48:47.134Z,61.68
2022-08-05T06:50:56.949Z,61.50
2022-08-05T06:53:28.224Z,61.21
2022-08-05T06:55:58.249Z,61.02
2022-08-05T06:58:35.311Z,61.30
2022-08-05T07:01:07.093Z,60.99
2022-08-05T07:03:35.082Z,60.65
2022-08-05T07:06:05.662Z,60.56
2022-08-05T07:08:47.803Z,60.50
2022-08-05T07:11:22.591Z,60.22
2022-08-05T07:14:15.510Z,59.33
2022-08-05T07:17:58.595Z,59.50
2022-08-05T07:20:16.651Z,58.78
2022-08-05T07:22:28.102Z,58.01
2022-08-05T07:25:23.584Z,57.67
2022-08-05T07:27:58.526Z,57.68
2022-08-05T07:30:33.154Z,57.18
2022-08-05T07:33:05.571Z,56.84
2022-08-05T07:36:01.434Z,57.27
2022-08-05T07:38:33.775Z,57.41
2022-08-05T07:42:07.315Z,57.07
2022-08-05T07:43:57.522Z,57.01
2022-08-05T07:46:26.726Z,56.42
2022-08-05T07:49:01.750Z,57.18
2022-08-05T07:51:37.295Z,56.07
2022-08-05T07:54:08.546Z,55.21
2022-08-05T07:57:00.033Z,54.62
2022-08-05T07:59:38.342Z,54.49
2022-08-05T08:02:10.603Z,54.68
2022-08-05T08:04:47.656Z,53.41
2022-08-05T08:07:16.089Z,53.02
2022-08-05T08:09:46.085Z,53.33
2022-08-05T08:12:35.036Z,53.01
2022-08-05T08:15:04.461Z,53.12
2022-08-05T08:17:32.959Z,53.40
2022-08-05T08:20:22.756Z,53.77
2022-08-05T08:22:54.324Z,52.45
2022-08-05T08:25:26.895Z,52.29
2022-08-05T08:28:18.368Z,52.27
2022-08-05T08:30:47.890Z,52.27
2022-08-05T08:33:17.658Z,51.76
2022-08-05T08:35:52.828Z,51.48
2022-08-05T08:38:36.023Z,51.05
2022-08-05T08:41:09.953Z,51.02
2022-08-05T08:45:19.669Z,50.52
2022-08-05T08:46:28.653Z,50.55
2022-08-05T08:49:07.886Z,50.86
2022-08-05T08:52:04.032Z,50.68
2022-08-05T08:54:42.307Z,50.51
2022-08-05T08:57:11.007Z,50.35
2022-08-05T08:59:38.908Z,50.17
2022-08-05T09:02:09.265Z,49.98
2022-08-05T09:04:58.213Z,49.71
2022-08-05T09:07:28.919Z,49.55
2022-08-05T09:09:56.660Z,49.43
2022-08-05T09:12:27.746Z,48.54
2022-08-05T09:14:59.397Z,48.99
2022-08-05T09:17:42.606Z,49.93
2022-08-05T09:20:36.552Z,49.03
2022-08-05T09:23:18.608Z,48.91
2022-08-05T09:26:02.418Z,48.32
2022-08-05T09:28:33.544Z,48.33
2022-08-05T09:31:43.580Z,48.32
2022-08-05T09:34:01.597Z,47.85
2022-08-05T09:36:59.705Z,47.56
2022-08-05T09:39:41.571Z,47.86
2022-08-05T09:42:23.195Z,48.55
2022-08-05T09:44:56.607Z,47.24
2022-08-05T09:47:48.370Z,47.23
2022-08-05T09:50:37.545Z,47.15
2022-08-05T09:53:05.592Z,45.74
2022-08-05T09:55:56.675Z,45.41
2022-08-05T09:58:23.433Z,45.84
2022-08-05T10:01:13.242Z,46.83
2022-08-05T10:03:59.215Z,45.67
2022-08-05T10:06:28.052Z,46.18
2022-08-05T10:08:56.421Z,45.16
2022-08-05T10:11:23.752Z,45.37
2022-08-05T10:13:58.480Z,45.15
2022-08-05T10:16:41.578Z,46.02
2022-08-05T10:19:11.826Z,45.27
2022-08-05T10:21:40.368Z,45.59
2022-08-05T10:24:15.317Z,45.44
2022-08-05T10:26:48.995Z,45.56
2022-08-05T10:29:24.114Z,44.64
2022-08-05T10:32:53.124Z,44.44
2022-08-05T10:34:55.449Z,45.01
2022-08-05T10:37:22.758Z,44.66
2022-08-05T10:40:17.481Z,44.05
2022-08-05T10:42:50.637Z,44.54
2022-08-05T10:45:39.840Z,44.49
2022-08-05T10:48:39.545Z,44.19
2022-08-05T10:51:23.060Z,44.84
2022-08-05T10:54:00.861Z,44.70
2022-08-05T10:56:31.217Z,44.14
2022-08-05T10:58:58.352Z,43.96
2022-08-05T11:01:55.128Z,43.25
2022-08-05T11:04:43.348Z,44.35
2022-08-05T11:07:15.399Z,44.79
2022-08-05T11:09:47.574Z,44.64
2022-08-05T11:12:45.414Z,44.53
2022-08-05T11:15:21.306Z,43.58
2022-08-05T11:17:59.450Z,43.94
2022-08-05T11:20:45.185Z,43.04
2022-08-05T11:23:33.378Z,43.45
2022-08-05T11:26:12.282Z,43.72
2022-08-05T11:28:43.139Z,44.52
2022-08-05T11:31:10.580Z,44.16
2022-08-05T11:33:46.218Z,44.67
2022-08-05T11:36:42.684Z,43.03
2022-08-05T11:39:12.249Z,43.30
2022-08-05T11:42:01.946Z,44.58
2022-08-05T11:44:53.074Z,42.51
2022-08-05T11:47:48.439Z,43.87
2022-08-05T11:50:14.354Z,43.60
2022-08-05T11:52:43.996Z,44.45
2022-08-05T11:55:13.342Z,43.97
2022-08-05T11:58:10.616Z,44.09
2022-08-05T12:00:38.407Z,44.65
2022-08-05T12:03:23.895Z,43.19
2022-08-05T12:06:05.971Z,42.79
2022-08-05T12:08:33.522Z,43.44
2022-08-05T12:11:06.057Z,43.87
2022-08-05T12:13:49.263Z,43.66
2022-08-05T12:16:26.984Z,42.70
2022-08-05T12:18:55.693Z,42.44
2022-08-05T12:21:49.826Z,41.79
2022-08-05T12:24:18.988Z,42.07
2022-08-05T12:26:50.188Z,41.98
2022-08-05T12:29:22.765Z,42.73
2022-08-05T12:31:58.494Z,42.12
2022-08-05T12:34:33.716Z,43.57
2022-08-05T12:37:16.253Z,41.99
2022-08-05T12:39:48.536Z,42.01
2022-08-05T12:42:19.851Z,41.95
2022-08-05T12:44:47.411Z,41.00
2022-08-05T12:47:26.166Z,41.49
2022-08-05T12:50:03.200Z,40.01
2022-08-05T12:52:42.364Z,40.77
2022-08-05T12:55:21.984Z,41.40
2022-08-05T12:58:49.514Z,41.34
2022-08-05T13:02:01.238Z,40.59
2022-08-05T13:03:32.903Z,41.11
2022-08-05T13:06:07.240Z,39.64
2022-08-05T13:08:38.962Z,39.84
2022-08-05T13:11:08.188Z,39.52
2022-08-05T13:14:05.135Z,40.32
2022-08-05T13:16:27.990Z,40.18
2022-08-05T13:18:59.623Z,40.07
2022-08-05T13:21:28.363Z,40.13
2022-08-05T13:24:05.867Z,39.23
2022-08-05T13:26:36.370Z,39.15
2022-08-05T13:29:05.001Z,39.43
2022-08-05T13:32:02.795Z,39.37
2022-08-05T13:34:22.157Z,39.22
2022-08-05T13:36:53.216Z,39.02
2022-08-05T13:40:13.488Z,38.70
2022-08-05T13:42:14.511Z,38.59
2022-08-05T13:44:45.542Z,39.62
2022-08-05T13:47:36.030Z,38.82
2022-08-05T13:50:04.719Z,39.42
2022-08-05T13:52:35.336Z,37.25
2022-08-05T13:55:07.842Z,37.50
2022-08-05T13:57:51.050Z,37.27
2022-08-05T14:00:26.985Z,37.69
2022-08-05T14:02:56.726Z,37.43
2022-08-05T14:05:48.107Z,37.46
2022-08-05T14:08:20.359Z,37.51
2022-08-05T14:10:48.581Z,37.88
2022-08-05T14:13:15.776Z,37.66
2022-08-05T14:16:04.602Z,38.11
2022-08-05T14:18:30.523Z,37.28
2022-08-05T14:20:58.882Z,37.55
2022-08-05T14:23:33.705Z,37.28
2022-08-05T14:26:04.923Z,37.42
2022-08-05T14:28:33.257Z,37.23
2022-08-05T14:31:01.720Z,37.43
2022-08-05T14:33:56.409Z,37.38
2022-08-05T14:36:21.308Z,37.50
2022-08-05T14:38:50.588Z,37.77
2022-08-05T14:41:18.713Z,37.25
2022-08-05T14:44:00.095Z,37.17
2022-08-05T14:46:30.809Z,37.40
2022-08-05T14:49:06.249Z,37.86
2022-08-05T14:51:42.751Z,38.04
2022-08-05T14:54:29.586Z,38.44
2022-08-05T14:56:59.291Z,37.89
2022-08-05T14:59:29.504Z,37.54
2022-08-05T15:02:04.058Z,37.00
2022-08-05T15:04:43.373Z,36.64
2022-08-05T15:07:12.094Z,37.20
2022-08-05T15:10:01.320Z,34.95
2022-08-05T15:12:40.930Z,33.00
2022-08-05T15:15:16.133Z,31.35
2022-08-05T15:17:47.096Z,30.04
2022-08-05T15:20:24.629Z,28.81
2022-08-05T15:22:54.945Z,28.38
2022-08-05T15:25:41.315Z,27.45
2022-08-05T15:28:13.367Z,27.29
2022-08-05T15:30:43.365Z,27.45
2022-08-05T15:33:11.761Z,27.07
2022-08-05T15:35:45.362Z,26.07
2022-08-05T15:38:33.752Z,25.74
2022-08-05T15:41:23.844Z,25.93
2022-08-05T15:43:48.405Z,25.37
2022-08-05T15:46:15.813Z,25.42
2022-08-05T15:48:53.016Z,26.45
2022-08-05T15:52:04.492Z,26.15
2022-08-05T15:54:16.111Z,27.18
2022-08-05T15:56:43.614Z,26.99
2022-08-05T15:59:21.648Z,28.45
2022-08-05T16:01:53.718Z,30.23
2022-08-05T16:04:25.527Z,31.50
2022-08-05T16:06:56.744Z,32.92
2022-08-05T16:09:25.438Z,34.18
2022-08-05T16:11:54.094Z,34.63
2022-08-05T16:14:22.572Z,34.95
2022-08-05T16:16:50.406Z,34.68
2022-08-05T16:19:25.391Z,34.69
2022-08-05T16:22:05.281Z,34.89
2022-08-05T16:24:41.348Z,35.99
2022-08-05T16:28:00.276Z,35.74
2022-08-05T16:30:28.892Z,36.00
2022-08-05T16:32:57.974Z,36.38
2022-08-05T16:35:28.478Z,36.46
2022-08-05T16:38:02.423Z,36.50
2022-08-05T16:40:52.079Z,36.02
2022-08-05T16:43:41.860Z,36.09
2022-08-05T16:46:23.476Z,36.35
2022-08-05T16:48:52.056Z,36.90
2022-08-05T16:51:20.735Z,36.87
2022-08-05T16:54:03.049Z,37.14
2022-08-05T16:56:53.740Z,37.24
2022-08-05T16:59:20.613Z,38.07
2022-08-05T17:01:54.825Z,38.15
2022-08-05T17:04:28.171Z,38.00
2022-08-05T17:07:00.933Z,38.38
2022-08-05T17:09:30.192Z,38.88
2022-08-05T17:11:59.232Z,38.63
2022-08-05T17:14:36.987Z,39.10
2022-08-05T17:17:14.484Z,39.48
2022-08-05T17:19:45.350Z,39.40
2022-08-05T17:22:25.101Z,39.73
2022-08-05T17:24:58.287Z,40.29
2022-08-05T17:30:50.719Z,40.76
2022-08-05T17:33:20.431Z,41.01
2022-08-05T17:36:07.686Z,41.22
2022-08-05T17:38:34.472Z,41.37
2022-08-05T17:41:01.891Z,41.49
2022-08-05T17:43:46.939Z,41.46
2022-08-05T17:46:16.151Z,41.67
2022-08-05T17:48:45.224Z,41.85
2022-08-05T17:51:21.574Z,42.10
2022-08-05T17:53:54.538Z,42.52
2022-08-05T17:56:22.905Z,43.02
2022-08-05T17:58:55.541Z,43.15
2022-08-05T18:01:22.737Z,43.67
2022-08-05T18:04:04.076Z,43.61
2022-08-05T18:06:31.942Z,44.09
2022-08-05T18:08:59.390Z,44.22
2022-08-05T18:11:33.105Z,44.61
2022-08-05T18:14:07.464Z,44.80
2022-08-05T18:16:51.459Z,45.21
2022-08-05T18:19:22.798Z,45.53
2022-08-05T18:22:09.086Z,46.00
2022-08-05T18:24:39.467Z,46.37
2022-08-05T18:27:18.176Z,46.42
2022-08-05T18:29:54.128Z,46.60
2022-08-05T18:32:27.665Z,46.78
2022-08-05T18:34:56.730Z,47.25
2022-08-05T18:37:34.440Z,47.43
2022-08-05T18:40:34.157Z,47.66
2022-08-05T18:42:58.531Z,47.85
2022-08-05T18:45:41.004Z,48.26
2022-08-05T18:48:10.973Z,48.68
2022-08-05T18:52:02.813Z,48.88
2022-08-05T18:53:45.897Z,49.10
2022-08-05T18:56:17.721Z,49.31
2022-08-05T18:58:50.904Z,49.91
2022-08-05T19:01:33.342Z,49.81
2022-08-05T19:04:12.274Z,50.10
2022-08-05T19:06:45.288Z,50.53
2022-08-05T19:09:12.446Z,50.44
2022-08-05T19:12:00.628Z,50.59
2022-08-05T19:14:44.768Z,50.53
2022-08-05T19:17:14.410Z,50.87
2022-08-05T19:19:46.907Z,50.75
2022-08-05T19:22:17.239Z,50.96
2022-08-05T19:24:54.555Z,51.15
2022-08-05T19:27:27.833Z,51.13
2022-08-05T19:29:57.945Z,51.26
2022-08-05T19:32:26.366Z,51.70
2022-08-05T19:34:55.947Z,51.82
2022-08-05T19:37:29.853Z,51.89
2022-08-05T19:40:12.085Z,51.83
2022-08-05T19:42:39.211Z,51.91
2022-08-05T19:45:07.259Z,52.25
2022-08-05T19:47:37.275Z,52.69
2022-08-05T19:50:06.107Z,52.71
2022-08-05T19:52:35.884Z,53.23
2022-08-05T19:55:08.766Z,53.33
2022-08-05T19:58:07.033Z,53.78
2022-08-05T20:00:37.621Z,53.86
2022-08-05T20:03:09.075Z,54.17
2022-08-05T20:05:43.051Z,54.19
2022-08-05T20:08:10.675Z,54.14
2022-08-05T20:10:38.093Z,54.50
2022-08-05T20:13:10.978Z,54.31
2022-08-05T20:15:52.535Z,54.48
2022-08-05T20:18:33.391Z,54.42
2022-08-05T20:21:04.675Z,54.30
2022-08-05T20:23:39.702Z,54.61
2022-08-05T20:26:17.710Z,54.66
2022-08-05T20:28:48.825Z,54.55
2022-08-05T20:31:16.858Z,54.28
2022-08-05T20:33:45.111Z,54.31
2022-08-05T20:36:14.139Z,54.42
2022-08-05T20:38:53.519Z,54.65
2022-08-05T20:41:27.145Z,54.86
2022-08-05T20:44:18.649Z,54.89
2022-08-05T20:46:58.383Z,55.15
2022-08-05T20:49:26.755Z,55.67
2022-08-05T20:51:54.838Z,55.68
2022-08-05T20:54:43.631Z,55.90
2022-08-05T20:57:42.715Z,56.17
2022-08-05T21:00:20.054Z,56.17
2022-08-05T21:02:57.000Z,56.73
2022-08-05T21:05:24.813Z,56.47
2022-08-05T21:07:52.394Z,57.04
2022-08-05T21:10:20.398Z,57.16
2022-08-05T21:12:57.669Z,57.19
2022-08-05T21:15:36.288Z,57.48
2022-08-05T21:18:03.854Z,57.87
2022-08-05T21:20:32.967Z,58.45
2022-08-05T21:23:00.840Z,58.55
2022-08-05T21:25:34.055Z,58.72
2022-08-05T21:28:02.050Z,59.12
2022-08-05T21:30:29.135Z,59.56
2022-08-05T21:32:56.017Z,59.18
2022-08-05T21:35:29.950Z,59.36
2022-08-05T21:38:10.641Z,59.37
2022-08-05T21:40:39.493Z,59.54
2022-08-05T21:43:08.623Z,59.68
2022-08-05T21:45:57.540Z,59.85
2022-08-05T21:48:28.512Z,59.88
2022-08-05T21:50:56.243Z,60.22
2022-08-05T21:53:27.237Z,60.33
2022-08-05T21:56:05.841Z,60.66
2022-08-05T21:58:56.937Z,60.47
2022-08-05T22:01:24.989Z,60.39
2022-08-05T22:03:53.838Z,60.46
2022-08-05T22:06:22.388Z,60.29
2022-08-05T22:08:52.106Z,60.31
2022-08-05T22:11:35.036Z,60.47
2022-08-05T22:14:32.931Z,60.69
2022-08-05T22:16:57.009Z,60.69
2022-08-05T22:20:01.157Z,60.66
2022-08-05T22:22:15.595Z,60.70
2022-08-05T22:25:01.622Z,60.79
2022-08-05T22:28:04.968Z,60.82
2022-08-05T22:30:35.416Z,60.49
2022-08-05T22:33:15.407Z,60.41
2022-08-05T22:35:48.475Z,60.75
2022-08-05T22:38:19.608Z,60.87
2022-08-05T22:40:50.047Z,60.82
2022-08-05T22:43:36.604Z,61.09
2022-08-05T22:46:12.147Z,61.13
2022-08-05T22:48:42.120Z,61.26
2022-08-05T22:51:22.482Z,61.53
2022-08-05T22:53:51.868Z,61.81
2022-08-05T22:56:30.609Z,62.14
2022-08-05T22:59:00.126Z,62.35
2022-08-05T23:01:50.600Z,62.28
2022-08-05T23:04:18.362Z,62.54
2022-08-05T23:06:47.861Z,63.02
2022-08-05T23:09:26.988Z,62.95
2022-08-05T23:11:54.504Z,63.13
2022-08-05T23:14:22.664Z,63.39
2022-08-05T23:17:09.089Z,63.48
2022-08-05T23:19:46.680Z,63.51
2022-08-05T23:22:19.222Z,63.90
2022-08-05T23:24:51.421Z,63.81
2022-08-05T23:27:19.669Z,63.64
2022-08-05T23:29:50.683Z,63.92
2022-08-05T23:32:22.933Z,63.73
2022-08-05T23:34:50.873Z,64.18
2022-08-05T23:37:18.462Z,64.22
2022-08-05T23:39:54.342Z,64.38
2022-08-05T23:42:23.613Z,64.41
2022-08-05T23:44:57.202Z,64.47
2022-08-05T23:47:25.011Z,64.74
2022-08-05T23:49:56.472Z,64.79
2022-08-05T23:52:27.611Z,64.92
2022-08-05T23:55:10.037Z,65.00
2022-08-05T23:57:37.833Z,65.01
